Weather History for Chipley, FL

Change the Weather History Date:

Saturday, July 20, 2013

  Actual Average (KMAI) Record (KMAI)
Temperature  
Mean Temperature 84 °F 82 °F  
Max Temperature 91 °F 92 °F 104 °F (2000)
Min Temperature 78 °F 72 °F 70 °F (2003)
Degree Days  
Heating Degree Days 0    
Month to date heating degree days  
Since 1 June heating degree days  
Since 1 July heating degree days  
Cooling Degree Days 20    
Month to date cooling degree days  
Year to date cooling degree days  
Since 1 June cooling degree days  
Growing Degree Days 34 (Base 50)    
Moisture  
Dew Point 71 °F    
Average Humidity 66    
Maximum Humidity 78    
Minimum Humidity 46    
Precipitation  
Precipitation 0.03 in 0.16 in 1.46 in (2013)
Month to date precipitation 3.50  
Year to date precipitation 31.29  
Sea Level Pressure  
Sea Level Pressure 29.99 in    
Wind  
Wind Speed 3 mph (South)    
Max Wind Speed 13 mph    
Max Gust Speed 17 mph    
Visibility 10 miles    
Events      
T = Trace of Precipitation, MM = Missing Value Source: NWS Daily Summary

Daily Weather History Graph

Daily Weather History Graph

Search for Another Location

Airport:

Trip Planner

Search our weather history database for the weather conditions in past years. The results will help you decide how hot, cold, wet, or windy it might be!

Date:

Astronomy

Jul. 20, 2013 Rise Set
Actual Time 5:52 AM CDT 7:44 PM CDT
Civil Twilight 5:25 AM CDT 8:11 PM CDT
Nautical Twilight 4:53 AM CDT 8:43 PM CDT
Astronomical Twilight 4:18 AM CDT 9:18 PM CDT
Moon 5:48 PM CDT (7/20) 3:31 AM CDT (7/20)
Length of Visible Light 14h 45m
Length of Day
13h 51m
Waxing Gibbous, 94% of the Moon is Illuminated
Jul 20
Waxing Gibbous
Jul 22
Full
Jul 29
Last Quarter
Aug 6
New
Aug 14
First Quarter

Hourly Weather History & Observations

Time (CDT) Temp. Heat Index Dew Point Humidity Pressure Visibility Wind Dir Wind Speed Gust Speed Precip Events Conditions
12:15 AM 80.6 °F 84.6 °F 71.6 °F 74% 29.99 in 10.0 mi SE 3.5 mph - N/A   Clear
12:35 AM 80.6 °F 84.6 °F 71.6 °F 74% 29.99 in 10.0 mi SE 4.6 mph - N/A   Clear
12:55 AM 80.6 °F 84.6 °F 71.6 °F 74% 29.98 in 10.0 mi SE 3.5 mph - N/A   Clear
1:15 AM 80.6 °F 83.9 °F 69.8 °F 70% 29.98 in 10.0 mi Calm Calm - N/A   Clear
1:35 AM 80.6 °F 83.9 °F 69.8 °F 70% 29.98 in 10.0 mi Calm Calm - N/A   Clear
1:55 AM 82.4 °F 86.3 °F 69.8 °F 66% 29.98 in 10.0 mi Calm Calm - N/A   Clear
2:15 AM 82.4 °F 86.3 °F 69.8 °F 66% 29.98 in 10.0 mi Calm Calm - N/A   Clear
2:35 AM 82.4 °F 87.2 °F 71.6 °F 70% 29.98 in 10.0 mi South 3.5 mph - N/A   Clear
2:55 AM 80.6 °F 84.6 °F 71.6 °F 74% 29.98 in 10.0 mi Calm Calm - N/A   Clear
3:15 AM 80.6 °F 84.6 °F 71.6 °F 74% 29.98 in 10.0 mi SW 3.5 mph - N/A   Clear
3:35 AM 80.6 °F 84.6 °F 71.6 °F 74% 29.98 in 10.0 mi Calm Calm - N/A   Clear
3:55 AM 80.6 °F 84.6 °F 71.6 °F 74% 29.98 in 10.0 mi Calm Calm - N/A   Clear
4:15 AM 80.6 °F 84.6 °F 71.6 °F 74% 29.98 in 10.0 mi Calm Calm - N/A   Clear
4:35 AM 78.8 °F - 71.6 °F 78% 29.98 in 10.0 mi Calm Calm - N/A   Clear
4:55 AM 78.8 °F - 71.6 °F 78% 29.98 in 10.0 mi Calm Calm - N/A   Clear
5:15 AM 78.8 °F - 71.6 °F 78% 29.98 in 10.0 mi Calm Calm - N/A   Clear
5:35 AM 78.8 °F - 71.6 °F 78% 29.99 in 10.0 mi Calm Calm - N/A   Clear
5:55 AM 80.6 °F 84.6 °F 71.6 °F 74% 29.98 in 10.0 mi Calm Calm - N/A   Clear
6:15 AM 80.6 °F 84.6 °F 71.6 °F 74% 29.99 in 10.0 mi Calm Calm - N/A   Clear
6:35 AM 80.6 °F 84.6 °F 71.6 °F 74% 29.99 in 10.0 mi Calm Calm - N/A   Partly Cloudy
6:55 AM 80.6 °F 84.6 °F 71.6 °F 74% 29.99 in 10.0 mi Calm Calm - N/A   Partly Cloudy
7:15 AM 80.6 °F 84.6 °F 71.6 °F 74% 29.99 in 10.0 mi Calm Calm - N/A   Clear
7:35 AM 80.6 °F 84.6 °F 71.6 °F 74% 30.00 in 10.0 mi Calm Calm - N/A   Clear
7:55 AM 82.4 °F 88.2 °F 73.4 °F 74% 30.00 in 10.0 mi Calm Calm - N/A   Partly Cloudy
8:15 AM 82.4 °F 88.2 °F 73.4 °F 74% 30.00 in 10.0 mi NW 3.5 mph - N/A   Partly Cloudy
8:35 AM 84.2 °F 90.9 °F 73.4 °F 70% 29.99 in 10.0 mi NNW 5.8 mph - N/A   Scattered Clouds
8:55 AM 84.2 °F 90.9 °F 73.4 °F 70% 30.00 in 10.0 mi WNW 5.8 mph - N/A   Mostly Cloudy
9:15 AM 84.2 °F 89.6 °F 71.6 °F 66% 30.00 in 10.0 mi North 3.5 mph - N/A   Mostly Cloudy
9:35 AM 84.2 °F 89.6 °F 71.6 °F 66% 30.01 in 10.0 mi NW 4.6 mph - N/A   Scattered Clouds
9:55 AM 84.2 °F 89.6 °F 71.6 °F 66% 30.01 in 10.0 mi West 4.6 mph - N/A   Partly Cloudy
10:15 AM 86.0 °F 91.8 °F 71.6 °F 62% 30.01 in 10.0 mi Calm Calm - N/A   Scattered Clouds
10:35 AM 87.8 °F 93.8 °F 71.6 °F 58% 30.02 in 10.0 mi NNE 4.6 mph - N/A   Mostly Cloudy
10:55 AM 87.8 °F 92.6 °F 69.8 °F 55% 30.02 in 10.0 mi Calm Calm - N/A   Partly Cloudy
11:15 AM 87.8 °F 92.6 °F 69.8 °F 55% 30.03 in 10.0 mi Calm Calm - N/A   Clear
11:35 AM 89.6 °F 93.4 °F 68.0 °F 49% 30.02 in 10.0 mi NNE 4.6 mph - N/A   Mostly Cloudy
11:55 AM 89.6 °F 94.7 °F 69.8 °F 52% 30.02 in 10.0 mi NNE 5.8 mph - N/A   Partly Cloudy
12:15 PM 91.4 °F 95.4 °F 68.0 °F 46% 30.01 in 10.0 mi Calm Calm - N/A   Scattered Clouds
12:35 PM 89.6 °F 94.7 °F 69.8 °F 52% 30.01 in 10.0 mi Calm Calm - N/A   Mostly Cloudy
12:55 PM 87.8 °F 92.6 °F 69.8 °F 55% 30.00 in 10.0 mi East 3.5 mph - N/A   Overcast
1:15 PM 84.2 °F 89.6 °F 71.6 °F 66% 30.01 in 10.0 mi SSE 8.1 mph - 0.03 in   Overcast
1:35 PM 82.4 °F 86.3 °F 69.8 °F 66% 30.01 in 5.0 mi SE 3.5 mph - 0.03 in   Overcast
1:55 PM 82.4 °F 85.4 °F 68.0 °F 62% 30.01 in 10.0 mi Calm Calm - 0.03 in   Overcast
2:15 PM 84.2 °F 89.6 °F 71.6 °F 66% 30.00 in 10.0 mi SSW 4.6 mph - N/A   Mostly Cloudy
2:35 PM 86.0 °F 91.8 °F 71.6 °F 62% 29.99 in 10.0 mi SSW 4.6 mph - N/A   Clear
2:55 PM 87.8 °F 93.8 °F 71.6 °F 58% 29.98 in 10.0 mi SSW 6.9 mph - N/A   Clear
3:15 PM 87.8 °F 93.8 °F 71.6 °F 58% 29.98 in 10.0 mi South 9.2 mph - N/A   Clear
3:35 PM 89.6 °F 96.2 °F 71.6 °F 55% 29.98 in 10.0 mi SSW 8.1 mph - N/A   Clear
3:55 PM 89.6 °F 96.2 °F 71.6 °F 55% 29.96 in 10.0 mi SSW 11.5 mph 16.1 mph N/A   Partly Cloudy
4:15 PM 89.6 °F 98.2 °F 73.4 °F 59% 29.96 in 10.0 mi South 11.5 mph 17.3 mph N/A   Partly Cloudy
4:35 PM 87.8 °F 95.6 °F 73.4 °F 62% 29.95 in 10.0 mi SSW 11.5 mph - N/A   Partly Cloudy
4:55 PM 89.6 °F 98.2 °F 73.4 °F 59% 29.95 in 10.0 mi South 12.7 mph - N/A   Clear
5:15 PM 87.8 °F 93.8 °F 71.6 °F 58% 29.95 in 10.0 mi South 9.2 mph 16.1 mph N/A   Partly Cloudy
5:35 PM 87.8 °F 93.8 °F 71.6 °F 58% 29.95 in 10.0 mi SSW 10.4 mph 17.3 mph N/A   Partly Cloudy
5:55 PM 87.8 °F 93.8 °F 71.6 °F 58% 29.95 in 10.0 mi SSW 8.1 mph - N/A   Partly Cloudy
6:15 PM 89.6 °F 96.2 °F 71.6 °F 55% 29.95 in 10.0 mi South 8.1 mph - N/A   Scattered Clouds
6:35 PM 87.8 °F 95.6 °F 73.4 °F 62% 29.95 in 10.0 mi South 8.1 mph - N/A   Mostly Cloudy
6:55 PM 87.8 °F 93.8 °F 71.6 °F 58% 29.95 in 10.0 mi South 9.2 mph - N/A   Scattered Clouds
7:15 PM 86.0 °F 91.8 °F 71.6 °F 62% 29.95 in 10.0 mi SSW 9.2 mph 17.3 mph N/A   Clear
7:35 PM 86.0 °F 91.8 °F 71.6 °F 62% 29.95 in 10.0 mi South 6.9 mph - N/A   Clear
7:55 PM 86.0 °F 91.8 °F 71.6 °F 62% 29.96 in 10.0 mi South 8.1 mph - N/A   Scattered Clouds
8:15 PM 84.2 °F 89.6 °F 71.6 °F 66% 29.96 in 10.0 mi South 8.1 mph - N/A   Partly Cloudy
8:35 PM 84.2 °F 89.6 °F 71.6 °F 66% 29.97 in 10.0 mi SSW 5.8 mph - N/A   Clear
8:55 PM 84.2 °F 89.6 °F 71.6 °F 66% 29.98 in 10.0 mi South 8.1 mph - N/A   Clear
9:15 PM 84.2 °F 89.6 °F 71.6 °F 66% 29.98 in 10.0 mi South 8.1 mph - N/A   Clear
9:35 PM 84.2 °F 89.6 °F 71.6 °F 66% 29.99 in 10.0 mi SSW 4.6 mph - N/A   Clear
9:55 PM 84.2 °F 89.6 °F 71.6 °F 66% 30.00 in 10.0 mi South 5.8 mph - N/A   Clear
10:15 PM 84.2 °F 89.6 °F 71.6 °F 66% 30.01 in 10.0 mi South 5.8 mph - N/A   Clear
10:35 PM 84.2 °F 89.6 °F 71.6 °F 66% 30.01 in 10.0 mi South 9.2 mph - N/A   Clear
10:55 PM 82.4 °F 87.2 °F 71.6 °F 70% 30.01 in 10.0 mi South 5.8 mph - N/A   Clear
11:15 PM 82.4 °F 87.2 °F 71.6 °F 70% 30.01 in 10.0 mi South 6.9 mph - N/A   Partly Cloudy
11:35 PM 82.4 °F 87.2 °F 71.6 °F 70% 30.01 in 10.0 mi South 6.9 mph - N/A   Clear
11:55 PM 82.4 °F 87.2 °F 71.6 °F 70% 30.02 in 10.0 mi SSW 4.6 mph - N/A   Partly Cloudy